TOM5TD GCTS-EGNT
Flight info
| Callsign | TOM5TD |
|---|---|
| Flight time | N/A |
| Altitude | 34000 |
| Route | BIMBO DCT ROLAR DCT TELMU DCT XANEL/N0451F360 DCT RIPEL DCT ADVAT/M078F350 T290 GELPO DCT JABEX DCT TUVEN/N0445F350 DCT ADMUP DCT LIFFY UL975 WAL DCT POL |
| Aircraft | B738/M-SDE2E3FGHIRWXY/LB1 |
Departure
| Time | 2026-04-27 17:58 |
|---|---|
| Airport | Tenerife Sur Airport (GCTS) |
Arrival
| Time | N/A |
|---|---|
| Airport | Newcastle International Airport (EGNT) |
| Time | Latitude | Longitude | Altitude | Speed | Heading |
|---|---|---|---|---|---|
| 2026-04-27 17:07 | 28.04520 | -16.58225 | 225 ft | 0 kts | 338° |
| 2026-04-27 17:51 | 28.04519 | -16.58225 | 225 ft | 1 kts | 338° |
| 2026-04-27 17:51 | 28.04505 | -16.58218 | 225 ft | 3 kts | 339° |
| 2026-04-27 17:51 | 28.04486 | -16.58210 | 226 ft | 3 kts | 339° |
| 2026-04-27 17:51 | 28.04471 | -16.58204 | 226 ft | 3 kts | 335° |
| 2026-04-27 17:52 | 28.04456 | -16.58193 | 225 ft | 3 kts | 296° |
| 2026-04-27 17:52 | 28.04453 | -16.58175 | 224 ft | 3 kts | 253° |
| 2026-04-27 17:52 | 28.04458 | -16.58159 | 224 ft | 1 kts | 248° |
| 2026-04-27 17:52 | 28.04459 | -16.58155 | 224 ft | 0 kts | 248° |
| 2026-04-27 17:55 | 28.04456 | -16.58163 | 225 ft | 3 kts | 248° |
| 2026-04-27 17:55 | 28.04437 | -16.58206 | 224 ft | 9 kts | 227° |
| 2026-04-27 17:55 | 28.04361 | -16.58195 | 222 ft | 14 kts | 158° |
| 2026-04-27 17:55 | 28.04292 | -16.58220 | 222 ft | 12 kts | 244° |
| 2026-04-27 17:56 | 28.04258 | -16.58317 | 222 ft | 16 kts | 248° |
| 2026-04-27 17:56 | 28.04211 | -16.58452 | 222 ft | 20 kts | 248° |
| 2026-04-27 17:56 | 28.04170 | -16.58597 | 221 ft | 19 kts | 249° |
| 2026-04-27 17:56 | 28.04120 | -16.58741 | 211 ft | 21 kts | 248° |
| 2026-04-27 17:57 | 28.04058 | -16.58873 | 208 ft | 14 kts | 204° |
| 2026-04-27 17:57 | 28.03985 | -16.58838 | 207 ft | 14 kts | 127° |
| 2026-04-27 17:57 | 28.03942 | -16.58716 | 202 ft | 18 kts | 92° |
| 2026-04-27 17:57 | 28.03984 | -16.58578 | 198 ft | 22 kts | 68° |
| 2026-04-27 17:58 | 28.04119 | -16.58190 | 197 ft | 87 kts | 68° |
| 2026-04-27 17:58 | 28.04420 | -16.57329 | 193 ft | 145 kts | 68° |
| 2026-04-27 17:58 | 28.04825 | -16.56112 | 422 ft | 174 kts | 71° |
| 2026-04-27 17:58 | 28.05239 | -16.54844 | 1227 ft | 171 kts | 69° |
| 2026-04-27 17:59 | 28.05691 | -16.53532 | 1702 ft | 189 kts | 68° |
| 2026-04-27 17:59 | 28.06210 | -16.52065 | 1934 ft | 211 kts | 67° |
| 2026-04-27 17:59 | 28.06787 | -16.50449 | 2106 ft | 231 kts | 68° |
| 2026-04-27 17:59 | 28.07398 | -16.48722 | 2461 ft | 242 kts | 67° |
| 2026-04-27 18:00 | 28.08051 | -16.46874 | 2729 ft | 260 kts | 67° |
| 2026-04-27 18:00 | 28.08715 | -16.44980 | 3378 ft | 264 kts | 68° |
| 2026-04-27 18:00 | 28.09358 | -16.43035 | 4146 ft | 264 kts | 68° |
| 2026-04-27 18:00 | 28.09992 | -16.41071 | 4844 ft | 267 kts | 68° |
| 2026-04-27 18:01 | 28.10629 | -16.39093 | 5541 ft | 269 kts | 68° |
| 2026-04-27 18:01 | 28.11273 | -16.37096 | 6230 ft | 271 kts | 68° |
| 2026-04-27 18:01 | 28.11921 | -16.35083 | 6876 ft | 273 kts | 68° |
| 2026-04-27 18:01 | 28.12574 | -16.33056 | 7590 ft | 273 kts | 68° |
| 2026-04-27 18:02 | 28.13237 | -16.31004 | 8123 ft | 279 kts | 67° |
| 2026-04-27 18:02 | 28.13895 | -16.28962 | 8809 ft | 279 kts | 66° |
| 2026-04-27 18:02 | 28.14567 | -16.26880 | 9369 ft | 285 kts | 68° |
| 2026-04-27 18:02 | 28.15255 | -16.24751 | 9990 ft | 289 kts | 68° |
| 2026-04-27 18:03 | 28.15951 | -16.22584 | 10378 ft | 299 kts | 66° |
| 2026-04-27 18:03 | 28.16692 | -16.20286 | 10497 ft | 319 kts | 67° |
| 2026-04-27 18:03 | 28.17477 | -16.17852 | 10643 ft | 338 kts | 67° |
| 2026-04-27 18:03 | 28.18305 | -16.15280 | 10794 ft | 355 kts | 67° |
| 2026-04-27 18:04 | 28.19150 | -16.12642 | 11106 ft | 365 kts | 68° |
| 2026-04-27 18:04 | 28.20022 | -16.09920 | 11605 ft | 369 kts | 66° |
| 2026-04-27 18:04 | 28.20962 | -16.07200 | 12114 ft | 371 kts | 60° |
| 2026-04-27 18:04 | 28.22572 | -16.04941 | 12634 ft | 368 kts | 37° |
| 2026-04-27 18:05 | 28.24779 | -16.03542 | 13216 ft | 365 kts | 15° |
| 2026-04-27 18:05 | 28.27281 | -16.03000 | 13656 ft | 366 kts | 357° |
| 2026-04-27 18:05 | 28.29793 | -16.03233 | 14374 ft | 362 kts | 352° |
| 2026-04-27 18:05 | 28.32314 | -16.03592 | 14902 ft | 366 kts | 351° |
| 2026-04-27 18:06 | 28.34855 | -16.03986 | 15382 ft | 370 kts | 351° |
| 2026-04-27 18:06 | 28.37388 | -16.04379 | 16006 ft | 371 kts | 351° |
| 2026-04-27 18:06 | 28.39957 | -16.04769 | 16566 ft | 374 kts | 351° |
| 2026-04-27 18:06 | 28.42561 | -16.05155 | 17043 ft | 378 kts | 352° |
| 2026-04-27 18:07 | 28.45172 | -16.05535 | 17711 ft | 378 kts | 352° |
| 2026-04-27 18:07 | 28.47797 | -16.05912 | 18185 ft | 383 kts | 352° |
| 2026-04-27 18:07 | 28.50482 | -16.06295 | 18477 ft | 392 kts | 352° |
| 2026-04-27 18:07 | 28.53195 | -16.06681 | 18950 ft | 393 kts | 352° |
| 2026-04-27 18:08 | 28.55910 | -16.07066 | 19467 ft | 393 kts | 352° |
| 2026-04-27 18:08 | 28.58608 | -16.07449 | 19865 ft | 397 kts | 352° |
| 2026-04-27 18:08 | 28.61354 | -16.07840 | 20350 ft | 398 kts | 351° |
| 2026-04-27 18:08 | 28.64124 | -16.08234 | 20683 ft | 403 kts | 351° |
| 2026-04-27 18:09 | 28.66913 | -16.08630 | 21160 ft | 404 kts | 351° |
| 2026-04-27 18:09 | 28.69718 | -16.09029 | 21559 ft | 407 kts | 351° |
| 2026-04-27 18:09 | 28.72545 | -16.09432 | 21897 ft | 411 kts | 351° |
| 2026-04-27 18:09 | 28.75384 | -16.09837 | 22350 ft | 411 kts | 351° |
| 2026-04-27 18:10 | 28.78236 | -16.10243 | 22691 ft | 415 kts | 351° |
| 2026-04-27 18:10 | 28.81113 | -16.10653 | 23022 ft | 417 kts | 351° |
| 2026-04-27 18:10 | 28.83965 | -16.11060 | 23395 ft | 419 kts | 351° |
| 2026-04-27 18:10 | 28.86869 | -16.11474 | 23735 ft | 421 kts | 351° |
| 2026-04-27 18:11 | 28.89792 | -16.11891 | 24050 ft | 422 kts | 351° |
| 2026-04-27 18:11 | 28.92710 | -16.12308 | 24397 ft | 422 kts | 351° |
| 2026-04-27 18:11 | 28.95650 | -16.12484 | 24697 ft | 427 kts | 4° |
| 2026-04-27 18:11 | 28.98567 | -16.11698 | 24996 ft | 432 kts | 14° |
| 2026-04-27 18:12 | 29.01433 | -16.10680 | 25306 ft | 432 kts | 14° |
| 2026-04-27 18:12 | 29.04315 | -16.09656 | 25558 ft | 434 kts | 13° |
| 2026-04-27 18:12 | 29.07211 | -16.08634 | 25809 ft | 436 kts | 13° |
| 2026-04-27 18:12 | 29.10116 | -16.07617 | 26087 ft | 437 kts | 13° |
| 2026-04-27 18:13 | 29.12990 | -16.06619 | 26362 ft | 437 kts | 13° |
| 2026-04-27 18:13 | 29.15906 | -16.05611 | 26604 ft | 440 kts | 13° |
| 2026-04-27 18:13 | 29.18845 | -16.04598 | 26845 ft | 441 kts | 12° |
| 2026-04-27 18:13 | 29.21789 | -16.03584 | 27137 ft | 442 kts | 12° |
| 2026-04-27 18:14 | 29.24735 | -16.02568 | 27413 ft | 442 kts | 12° |
| 2026-04-27 18:14 | 29.27693 | -16.01548 | 27671 ft | 443 kts | 12° |
| 2026-04-27 18:14 | 29.30656 | -16.00526 | 27909 ft | 445 kts | 12° |
| 2026-04-27 18:14 | 29.33625 | -15.99501 | 28160 ft | 446 kts | 13° |
| 2026-04-27 18:15 | 29.36609 | -15.98470 | 28335 ft | 449 kts | 12° |
| 2026-04-27 18:15 | 29.39611 | -15.97432 | 28539 ft | 451 kts | 12° |
| 2026-04-27 18:15 | 29.42612 | -15.96393 | 28920 ft | 449 kts | 13° |
| 2026-04-27 18:15 | 29.45568 | -15.95368 | 29264 ft | 448 kts | 13° |
| 2026-04-27 18:16 | 29.48559 | -15.94331 | 29541 ft | 449 kts | 13° |
| 2026-04-27 18:16 | 29.51549 | -15.93294 | 29882 ft | 448 kts | 13° |
| 2026-04-27 18:16 | 29.54527 | -15.92260 | 30250 ft | 446 kts | 12° |
| 2026-04-27 18:16 | 29.57499 | -15.91228 | 30573 ft | 444 kts | 12° |
| 2026-04-27 18:17 | 29.60422 | -15.90213 | 30866 ft | 443 kts | 12° |
| 2026-04-27 18:17 | 29.63371 | -15.89187 | 31156 ft | 442 kts | 12° |
| 2026-04-27 18:17 | 29.66306 | -15.88167 | 31458 ft | 441 kts | 12° |
| 2026-04-27 18:17 | 29.69237 | -15.87146 | 31776 ft | 439 kts | 12° |
| 2026-04-27 18:18 | 29.72165 | -15.86127 | 32076 ft | 438 kts | 12° |
| 2026-04-27 18:18 | 29.75072 | -15.85114 | 32373 ft | 437 kts | 11° |
| 2026-04-27 18:18 | 29.77979 | -15.84100 | 32657 ft | 436 kts | 11° |
| 2026-04-27 18:18 | 29.80885 | -15.83086 | 32952 ft | 434 kts | 11° |
| 2026-04-27 18:19 | 29.83736 | -15.82090 | 33249 ft | 433 kts | 11° |
| 2026-04-27 18:19 | 29.86618 | -15.81083 | 33531 ft | 432 kts | 11° |
| 2026-04-27 18:19 | 29.89500 | -15.80075 | 33799 ft | 431 kts | 11° |
| 2026-04-27 18:19 | 29.92369 | -15.79071 | 34061 ft | 430 kts | 11° |
| 2026-04-27 18:20 | 29.98135 | -15.77196 | 34077 ft | 428 kts | 1° |
| 2026-04-27 18:20 | 30.01063 | -15.77180 | 34113 ft | 416 kts | 348° |
| 2026-04-27 18:20 | 30.03929 | -15.77672 | 34079 ft | 415 kts | 346° |
| 2026-04-27 18:21 | 30.09610 | -15.78782 | 34082 ft | 412 kts | 346° |
| 2026-04-27 18:21 | 30.15262 | -15.79874 | 34087 ft | 411 kts | 346° |
| 2026-04-27 18:22 | 30.20913 | -15.80927 | 34089 ft | 410 kts | 346° |
| 2026-04-27 18:22 | 30.26515 | -15.81954 | 34089 ft | 410 kts | 346° |
| 2026-04-27 18:23 | 30.32167 | -15.82986 | 34099 ft | 411 kts | 347° |
| 2026-04-27 18:23 | 30.37831 | -15.84021 | 34097 ft | 412 kts | 347° |
| 2026-04-27 18:24 | 30.43519 | -15.85063 | 34096 ft | 414 kts | 347° |
| 2026-04-27 18:24 | 30.49194 | -15.86103 | 34092 ft | 416 kts | 347° |
| 2026-04-27 18:25 | 30.54937 | -15.87157 | 34106 ft | 418 kts | 347° |
| 2026-04-27 18:25 | 30.60699 | -15.88215 | 34098 ft | 420 kts | 347° |
| 2026-04-27 18:26 | 30.66457 | -15.89274 | 34097 ft | 421 kts | 347° |
| 2026-04-27 18:26 | 30.72257 | -15.90342 | 34094 ft | 422 kts | 347° |
| 2026-04-27 18:27 | 30.78071 | -15.91413 | 34092 ft | 422 kts | 347° |
| 2026-04-27 18:27 | 30.83873 | -15.92484 | 34090 ft | 422 kts | 347° |
| 2026-04-27 18:28 | 30.89689 | -15.93559 | 34100 ft | 422 kts | 347° |
| 2026-04-27 18:28 | 30.95491 | -15.94633 | 34094 ft | 422 kts | 347° |
| 2026-04-27 18:29 | 31.01258 | -15.95701 | 34093 ft | 422 kts | 347° |
| 2026-04-27 18:29 | 31.07067 | -15.96778 | 34108 ft | 422 kts | 348° |
| 2026-04-27 18:30 | 31.12845 | -15.97851 | 34101 ft | 422 kts | 348° |
| 2026-04-27 18:30 | 31.18649 | -15.98930 | 34099 ft | 422 kts | 348° |
| 2026-04-27 18:31 | 31.24454 | -16.00010 | 34091 ft | 422 kts | 347° |
| 2026-04-27 18:31 | 31.30250 | -16.01090 | 34095 ft | 421 kts | 347° |
| 2026-04-27 18:32 | 31.36029 | -16.02168 | 34097 ft | 420 kts | 348° |
| 2026-04-27 18:32 | 31.41800 | -16.03124 | 34081 ft | 423 kts | 356° |
| 2026-04-27 18:33 | 31.44736 | -16.02692 | 34125 ft | 428 kts | 9° |
| 2026-04-27 18:33 | 31.47637 | -16.01867 | 34089 ft | 429 kts | 9° |
| 2026-04-27 18:33 | 31.53430 | -16.00131 | 34089 ft | 429 kts | 10° |
| 2026-04-27 18:34 | 31.59200 | -15.98417 | 34102 ft | 430 kts | 10° |
| 2026-04-27 18:34 | 31.65030 | -15.96716 | 34108 ft | 432 kts | 10° |
| 2026-04-27 18:35 | 31.70893 | -15.95020 | 34107 ft | 435 kts | 10° |
| 2026-04-27 18:35 | 31.76781 | -15.93319 | 34102 ft | 437 kts | 10° |
| 2026-04-27 18:36 | 31.81710 | -15.91893 | 34099 ft | 438 kts | 10° |
| 2026-04-27 18:36 | 31.87659 | -15.90169 | 34095 ft | 440 kts | 10° |
| 2026-04-27 18:37 | 31.93617 | -15.88440 | 34099 ft | 441 kts | 11° |
| 2026-04-27 18:37 | 31.99547 | -15.86717 | 34099 ft | 441 kts | 11° |
| 2026-04-27 18:38 | 32.05516 | -15.84979 | 34095 ft | 441 kts | 11° |
| 2026-04-27 18:38 | 32.11484 | -15.83240 | 34095 ft | 440 kts | 11° |
| 2026-04-27 18:39 | 32.17433 | -15.81504 | 34094 ft | 440 kts | 11° |
| 2026-04-27 18:39 | 32.23338 | -15.79779 | 34099 ft | 439 kts | 11° |
| 2026-04-27 18:40 | 32.29264 | -15.78045 | 34092 ft | 438 kts | 11° |
| 2026-04-27 18:40 | 32.35181 | -15.76312 | 34092 ft | 437 kts | 11° |
| 2026-04-27 18:41 | 32.41088 | -15.74579 | 34088 ft | 437 kts | 11° |
| 2026-04-27 18:41 | 32.46948 | -15.72858 | 34089 ft | 436 kts | 11° |
| 2026-04-27 18:42 | 32.51851 | -15.71416 | 34094 ft | 436 kts | 11° |
| 2026-04-27 18:42 | 32.58741 | -15.69388 | 34093 ft | 436 kts | 11° |
| 2026-04-27 18:43 | 32.64633 | -15.67650 | 34091 ft | 436 kts | 11° |
| 2026-04-27 18:43 | 32.70542 | -15.65905 | 34097 ft | 437 kts | 11° |
| 2026-04-27 18:44 | 32.76423 | -15.64166 | 34102 ft | 438 kts | 11° |
| 2026-04-27 18:44 | 32.82350 | -15.62411 | 34093 ft | 439 kts | 11° |
| 2026-04-27 18:45 | 32.88259 | -15.60658 | 34097 ft | 440 kts | 11° |
| 2026-04-27 18:45 | 32.94214 | -15.58889 | 34092 ft | 441 kts | 11° |
| 2026-04-27 18:46 | 33.00181 | -15.57114 | 34095 ft | 442 kts | 11° |
| 2026-04-27 18:46 | 33.06159 | -15.55332 | 34082 ft | 443 kts | 11° |
| 2026-04-27 18:47 | 33.12142 | -15.53547 | 34087 ft | 443 kts | 11° |
| 2026-04-27 18:47 | 33.18080 | -15.51774 | 34094 ft | 443 kts | 11° |
| 2026-04-27 18:48 | 33.24069 | -15.49985 | 34098 ft | 442 kts | 11° |
| 2026-04-27 18:48 | 33.30052 | -15.48195 | 34081 ft | 442 kts | 12° |
| 2026-04-27 18:49 | 33.35980 | -15.46419 | 34089 ft | 441 kts | 11° |
| 2026-04-27 18:49 | 33.41939 | -15.44627 | 34092 ft | 441 kts | 11° |
| 2026-04-27 18:50 | 33.47884 | -15.42835 | 34087 ft | 440 kts | 11° |
| 2026-04-27 18:50 | 33.53798 | -15.41055 | 34095 ft | 439 kts | 12° |
| 2026-04-27 18:51 | 33.59731 | -15.39267 | 34092 ft | 439 kts | 12° |
| 2026-04-27 18:51 | 33.65651 | -15.37479 | 34097 ft | 438 kts | 11° |
| 2026-04-27 18:52 | 33.71574 | -15.35689 | 34091 ft | 438 kts | 11° |
| 2026-04-27 18:53 | 33.80429 | -15.33005 | 34076 ft | 439 kts | 12° |
| 2026-04-27 18:53 | 33.86358 | -15.31203 | 34081 ft | 439 kts | 11° |
| 2026-04-27 18:54 | 33.92293 | -15.29402 | 34074 ft | 440 kts | 11° |
| 2026-04-27 18:54 | 33.98207 | -15.27599 | 34079 ft | 440 kts | 11° |
| 2026-04-27 18:55 | 34.04143 | -15.25789 | 34087 ft | 440 kts | 12° |
| 2026-04-27 18:55 | 34.10097 | -15.23974 | 34088 ft | 440 kts | 12° |
| 2026-04-27 18:56 | 34.16045 | -15.22151 | 34080 ft | 441 kts | 12° |
| 2026-04-27 18:56 | 34.21984 | -15.20255 | 34071 ft | 442 kts | 17° |
| 2026-04-27 18:57 | 34.27714 | -15.17667 | 34073 ft | 442 kts | 20° |
| 2026-04-27 18:57 | 34.33438 | -15.14931 | 34076 ft | 442 kts | 20° |
| 2026-04-27 18:58 | 34.39172 | -15.12209 | 34075 ft | 442 kts | 18° |
| 2026-04-27 18:58 | 34.44906 | -15.09523 | 34075 ft | 441 kts | 18° |
| 2026-04-27 18:59 | 34.50594 | -15.06861 | 34081 ft | 441 kts | 19° |
| 2026-04-27 18:59 | 34.56324 | -15.04176 | 34087 ft | 441 kts | 18° |
| 2026-04-27 19:00 | 34.62048 | -15.01499 | 34099 ft | 441 kts | 20° |
| 2026-04-27 19:00 | 34.67792 | -14.98804 | 34080 ft | 441 kts | 18° |
| 2026-04-27 19:01 | 34.73519 | -14.96112 | 34087 ft | 441 kts | 20° |
| 2026-04-27 19:01 | 34.79213 | -14.93430 | 34087 ft | 441 kts | 18° |
| 2026-04-27 19:02 | 34.84950 | -14.90728 | 34083 ft | 442 kts | 20° |
| 2026-04-27 19:02 | 34.90682 | -14.88013 | 34080 ft | 442 kts | 19° |
| 2026-04-27 19:03 | 34.96420 | -14.85301 | 34078 ft | 443 kts | 20° |
| 2026-04-27 19:03 | 35.02173 | -14.82575 | 34078 ft | 443 kts | 19° |
| 2026-04-27 19:04 | 35.07922 | -14.79843 | 34085 ft | 443 kts | 20° |
| 2026-04-27 19:04 | 35.13652 | -14.77118 | 34074 ft | 444 kts | 18° |
| 2026-04-27 19:05 | 35.19410 | -14.74381 | 34079 ft | 444 kts | 20° |
| 2026-04-27 19:05 | 35.25164 | -14.71646 | 34077 ft | 444 kts | 19° |
| 2026-04-27 19:06 | 35.30928 | -14.68892 | 34070 ft | 444 kts | 19° |
| 2026-04-27 19:06 | 35.36679 | -14.66135 | 34075 ft | 443 kts | 19° |
| 2026-04-27 19:07 | 35.42421 | -14.63384 | 34073 ft | 443 kts | 19° |
| 2026-04-27 19:07 | 35.48126 | -14.60648 | 34077 ft | 442 kts | 19° |
| 2026-04-27 19:08 | 35.53862 | -14.57887 | 34079 ft | 442 kts | 20° |
| 2026-04-27 19:08 | 35.59610 | -14.55125 | 34074 ft | 442 kts | 19° |
| 2026-04-27 19:09 | 35.65320 | -14.52312 | 34077 ft | 443 kts | 23° |
| 2026-04-27 19:09 | 35.70904 | -14.49090 | 34080 ft | 444 kts | 24° |
| 2026-04-27 19:10 | 35.76463 | -14.45755 | 34080 ft | 444 kts | 25° |
| 2026-04-27 19:10 | 35.81995 | -14.42467 | 34078 ft | 445 kts | 24° |
| 2026-04-27 19:11 | 35.87580 | -14.39165 | 34072 ft | 446 kts | 24° |
| 2026-04-27 19:11 | 35.93176 | -14.35874 | 34075 ft | 446 kts | 24° |
| 2026-04-27 19:12 | 35.98778 | -14.32568 | 34065 ft | 446 kts | 24° |
| 2026-04-27 19:12 | 36.04385 | -14.29252 | 34071 ft | 446 kts | 23° |
| 2026-04-27 19:13 | 36.09987 | -14.25946 | 34072 ft | 445 kts | 24° |
| 2026-04-27 19:13 | 36.15541 | -14.22650 | 34072 ft | 445 kts | 24° |
| 2026-04-27 19:14 | 36.21132 | -14.19329 | 34063 ft | 446 kts | 24° |
| 2026-04-27 19:14 | 36.26737 | -14.15997 | 34075 ft | 446 kts | 24° |
| 2026-04-27 19:15 | 36.32355 | -14.12654 | 34076 ft | 447 kts | 24° |
| 2026-04-27 19:15 | 36.37941 | -14.09320 | 34070 ft | 449 kts | 24° |
| 2026-04-27 19:16 | 36.43575 | -14.05954 | 34074 ft | 449 kts | 25° |
| 2026-04-27 19:16 | 36.49210 | -14.02579 | 34057 ft | 450 kts | 25° |
| 2026-04-27 19:17 | 36.54853 | -13.99199 | 34063 ft | 450 kts | 24° |
| 2026-04-27 19:17 | 36.60491 | -13.95813 | 34065 ft | 449 kts | 24° |
| 2026-04-27 19:18 | 36.66082 | -13.92451 | 34066 ft | 448 kts | 24° |
| 2026-04-27 19:18 | 36.71702 | -13.89064 | 34067 ft | 448 kts | 24° |
| 2026-04-27 19:19 | 36.77313 | -13.85679 | 34067 ft | 447 kts | 25° |
| 2026-04-27 19:19 | 36.82896 | -13.82305 | 34056 ft | 448 kts | 25° |
| 2026-04-27 19:20 | 36.88506 | -13.78913 | 34067 ft | 448 kts | 25° |
| 2026-04-27 19:20 | 36.94120 | -13.75508 | 34069 ft | 449 kts | 25° |
| 2026-04-27 19:21 | 36.99752 | -13.72089 | 34066 ft | 449 kts | 25° |
| 2026-04-27 19:21 | 37.05395 | -13.68657 | 34058 ft | 450 kts | 25° |
| 2026-04-27 19:22 | 37.11029 | -13.65223 | 34058 ft | 451 kts | 25° |
| 2026-04-27 19:22 | 37.16641 | -13.61799 | 34071 ft | 451 kts | 25° |
| 2026-04-27 19:23 | 37.22293 | -13.58343 | 34066 ft | 452 kts | 25° |